Time;durP1;ratioP1;P1;durP2;ratioP2;P2;SDS_P1;SDS_P2;PMS_P1;PMS_P2;Temp;Humidity;BMP_temperature;BMP_pressure;BME280_temperature;BME280_humidity;BME280_pressure;Samples;Min_cycle;Max_cycle;Signal;HPM_P1;HPM_P2
2021/05/02 00:28:09;;;;;;;6.15;5.05;;;;;;;;;;4213012;28;20238;-66
2021/05/02 00:30:35;;;;;;;5.53;4.30;;;;;;;;;;4151234;34;20183;-65
2021/05/02 00:33:01;;;;;;;5.35;4.85;;;;;;;;;;4150075;34;20522;-65
2021/05/02 00:35:27;;;;;;;6.28;5.62;;;;;;;;;;4138991;34;20518;-64
2021/05/02 00:37:54;;;;;;;8.13;5.70;;;;;;;;;;4151201;34;20134;-63
2021/05/02 00:40:39;;;;;;;7.43;6.32;;;;;;;;;;4151304;34;20207;-64
2021/05/02 00:43:19;;;;;;;9.43;5.55;;;;;;;;;;4140850;34;20589;-64
2021/05/02 00:46:03;;;;;;;6.43;5.80;;;;;;;;;;4128993;34;20527;-64
2021/05/02 00:48:56;;;;;;;6.68;5.55;;;;;;;;;;4151242;34;20143;-64
2021/05/02 00:51:23;;;;;;;10.70;5.62;;;;;;;;;;4143962;34;20103;-65
2021/05/02 00:53:49;;;;;;;6.50;5.78;;;;;;;;;;4126958;34;20518;-64
2021/05/02 00:56:30;;;;;;;6.18;5.57;;;;;;;;;;4151030;34;20170;-66
2021/05/02 00:59:04;;;;;;;7.93;6.07;;;;;;;;;;4151387;34;20514;-63
2021/05/02 01:01:37;;;;;;;7.90;6.15;;;;;;;;;;4151085;34;20536;-63
2021/05/02 01:04:03;;;;;;;7.68;6.25;;;;;;;;;;4139171;34;20223;-65
2021/05/02 01:06:30;;;;;;;8.45;6.60;;;;;;;;;;4151088;34;20110;-64
2021/05/02 01:08:57;;;;;;;8.60;6.62;;;;;;;;;;4151030;34;20588;-66
2021/05/02 01:11:23;;;;;;;9.38;7.35;;;;;;;;;;4127413;34;20142;-65
2021/05/02 01:14:10;;;;;;;6.75;6.15;;;;;;;;;;4138717;34;20240;-62
2021/05/02 01:16:36;;;;;;;7.37;6.68;;;;;;;;;;4151044;34;20174;-64
2021/05/02 01:19:08;;;;;;;6.60;5.90;;;;;;;;;;4138448;34;20312;-63
2021/05/02 01:21:39;;;;;;;7.87;5.75;;;;;;;;;;4138352;34;20119;-66
2021/05/02 01:24:07;;;;;;;6.62;6.03;;;;;;;;;;4138601;34;20130;-64
2021/05/02 01:26:39;;;;;;;6.65;6.05;;;;;;;;;;4150502;34;20111;-64
2021/05/02 01:29:05;;;;;;;7.75;6.20;;;;;;;;;;4138516;34;20091;-64
2021/05/02 01:31:31;;;;;;;7.25;6.55;;;;;;;;;;4138371;34;20129;-64
2021/05/02 01:33:57;;;;;;;8.02;6.03;;;;;;;;;;4149502;34;20533;-64
2021/05/02 01:36:23;;;;;;;7.20;6.30;;;;;;;;;;4151029;34;20199;-62
2021/05/02 01:38:49;;;;;;;8.23;6.45;;;;;;;;;;4150836;34;20232;-64
2021/05/02 01:41:15;;;;;;;7.20;6.50;;;;;;;;;;4138135;34;20129;-63
2021/05/02 01:43:41;;;;;;;6.87;6.22;;;;;;;;;;4150769;34;20142;-64
2021/05/02 01:46:07;;;;;;;7.05;6.30;;;;;;;;;;4150652;34;20125;-64
2021/05/02 01:48:34;;;;;;;7.18;6.37;;;;;;;;;;4138258;34;20542;-65
2021/05/02 01:51:01;;;;;;;9.30;7.00;;;;;;;;;;4138272;34;20538;-64
2021/05/02 01:53:28;;;;;;;8.05;7.00;;;;;;;;;;4150689;34;20134;-63
2021/05/02 01:55:54;;;;;;;7.87;7.10;;;;;;;;;;4138171;34;20533;-62
2021/05/02 01:58:20;;;;;;;9.20;7.22;;;;;;;;;;4138125;34;20542;-65
2021/05/02 02:00:51;;;;;;;7.62;6.20;;;;;;;;;;4150823;34;20111;-64
2021/05/02 02:03:17;;;;;;;7.37;6.20;;;;;;;;;;4135525;34;20607;-64
2021/05/02 02:05:43;;;;;;;7.00;6.30;;;;;;;;;;4137002;34;20111;-63
2021/05/02 02:08:10;;;;;;;6.80;6.15;;;;;;;;;;4137257;34;20127;-64
2021/05/02 02:10:36;;;;;;;7.35;6.57;;;;;;;;;;4137071;34;20507;-63
2021/05/02 02:13:02;;;;;;;7.53;6.07;;;;;;;;;;4135545;34;20110;-64
2021/05/02 02:15:29;;;;;;;7.25;6.30;;;;;;;;;;4124599;34;20178;-66
2021/05/02 02:17:54;;;;;;;7.07;6.43;;;;;;;;;;4136980;34;20123;-64
2021/05/02 02:20:22;;;;;;;8.52;6.57;;;;;;;;;;4136987;34;20154;-66
2021/05/02 02:22:48;;;;;;;6.87;6.28;;;;;;;;;;4136899;34;20108;-65
2021/05/02 02:25:14;;;;;;;6.47;5.87;;;;;;;;;;4124648;34;20120;-65
2021/05/02 02:27:40;;;;;;;8.32;6.70;;;;;;;;;;4124532;34;20459;-63
2021/05/02 02:30:07;;;;;;;7.30;6.53;;;;;;;;;;4137633;34;20128;-64
2021/05/02 02:32:34;;;;;;;7.22;6.53;;;;;;;;;;4150212;34;20138;-65
2021/05/02 02:35:00;;;;;;;7.30;6.28;;;;;;;;;;4150226;34;20214;-63
2021/05/02 02:37:27;;;;;;;7.20;6.45;;;;;;;;;;4137588;34;20139;-65
2021/05/02 02:39:57;;;;;;;11.00;7.80;;;;;;;;;;4150262;34;20131;-66
2021/05/02 02:42:24;;;;;;;7.05;6.35;;;;;;;;;;4150021;34;20129;-66
2021/05/02 02:45:04;;;;;;;9.40;6.75;;;;;;;;;;4137805;34;20211;-66
2021/05/02 02:47:34;;;;;;;7.22;6.53;;;;;;;;;;4137933;34;20111;-66
2021/05/02 02:50:01;;;;;;;7.70;6.90;;;;;;;;;;4137855;34;20514;-63
2021/05/02 02:52:28;;;;;;;7.60;6.87;;;;;;;;;;4150141;34;20286;-64
2021/05/02 02:55:04;;;;;;;7.40;6.70;;;;;;;;;;4150048;34;20467;-65
2021/05/02 02:57:31;;;;;;;8.60;7.70;;;;;;;;;;4150331;34;20108;-65
2021/05/02 02:59:58;;;;;;;9.10;7.25;;;;;;;;;;4137679;34;20216;-65
2021/05/02 03:02:24;;;;;;;8.57;7.25;;;;;;;;;;4137692;34;20552;-63
2021/05/02 03:04:53;;;;;;;8.65;7.22;;;;;;;;;;4150011;34;20107;-64
2021/05/02 03:07:21;;;;;;;9.15;7.60;;;;;;;;;;4137786;34;20448;-63
2021/05/02 03:09:48;;;;;;;8.18;7.37;;;;;;;;;;4137569;34;20107;-64
2021/05/02 03:12:17;;;;;;;7.78;7.00;;;;;;;;;;4150087;34;20554;-65
2021/05/02 03:14:43;;;;;;;8.10;7.25;;;;;;;;;;4137475;34;20111;-66
2021/05/02 03:17:09;;;;;;;8.65;7.53;;;;;;;;;;4138376;34;20131;-63
2021/05/02 03:19:36;;;;;;;8.07;7.28;;;;;;;;;;4139480;34;20556;-66
2021/05/02 03:22:15;;;;;;;7.87;7.05;;;;;;;;;;4139416;34;20519;-63
2021/05/02 03:24:43;;;;;;;10.43;7.75;;;;;;;;;;4139514;34;20532;-66
2021/05/02 03:27:19;;;;;;;8.02;7.15;;;;;;;;;;4151767;34;20126;-64
2021/05/02 03:29:47;;;;;;;8.55;7.75;;;;;;;;;;4128507;34;20111;-65
2021/05/02 03:32:13;;;;;;;9.50;7.95;;;;;;;;;;4139562;34;20198;-64
2021/05/02 03:34:41;;;;;;;9.10;8.05;;;;;;;;;;4139332;34;20222;-63
2021/05/02 03:37:11;;;;;;;8.25;7.45;;;;;;;;;;4139190;34;20107;-64
2021/05/02 03:39:38;;;;;;;9.02;8.13;;;;;;;;;;4151772;34;20195;-65
2021/05/02 03:42:04;;;;;;;8.02;7.25;;;;;;;;;;4139115;34;20559;-63
2021/05/02 03:44:30;;;;;;;9.63;8.05;;;;;;;;;;4151807;34;20615;-65
2021/05/02 03:46:56;;;;;;;8.35;7.45;;;;;;;;;;4151493;34;20099;-63
2021/05/02 03:49:22;;;;;;;8.68;7.68;;;;;;;;;;4139165;34;20190;-64
2021/05/02 03:51:48;;;;;;;8.73;7.82;;;;;;;;;;4151672;34;20115;-66
2021/05/02 03:54:13;;;;;;;9.23;8.05;;;;;;;;;;4139368;34;20127;-64
2021/05/02 03:56:44;;;;;;;8.25;7.45;;;;;;;;;;4151570;34;20111;-63
2021/05/02 03:59:11;;;;;;;9.20;8.40;;;;;;;;;;4151632;34;20482;-63
2021/05/02 04:02:00;;;;;;;9.75;8.00;;;;;;;;;;4151440;34;20107;-65
2021/05/02 04:04:28;;;;;;;8.68;7.87;;;;;;;;;;4151795;34;20186;-63
2021/05/02 04:06:57;;;;;;;8.85;8.05;;;;;;;;;;4151564;34;20127;-63
2021/05/02 04:09:23;;;;;;;8.52;7.57;;;;;;;;;;4139326;34;20732;-63
2021/05/02 04:11:49;;;;;;;9.10;7.85;;;;;;;;;;4138959;34;20463;-65
2021/05/02 04:14:16;;;;;;;8.27;7.47;;;;;;;;;;4138858;34;20226;-63
2021/05/02 04:16:42;;;;;;;8.68;7.78;;;;;;;;;;4151527;34;20581;-66
2021/05/02 04:19:08;;;;;;;9.43;7.07;;;;;;;;;;4151599;34;20158;-65
2021/05/02 04:21:35;;;;;;;8.93;8.07;;;;;;;;;;4151422;34;20135;-63
2021/05/02 04:24:01;;;;;;;8.82;7.45;;;;;;;;;;4138619;34;20154;-65
2021/05/02 04:26:26;;;;;;;9.23;7.68;;;;;;;;;;4138697;34;20146;-66
2021/05/02 04:28:52;;;;;;;8.98;8.07;;;;;;;;;;4138045;34;20190;-65
2021/05/02 04:31:18;;;;;;;8.75;7.80;;;;;;;;;;4151209;34;20114;-66
2021/05/02 04:33:45;;;;;;;8.45;7.65;;;;;;;;;;4151298;34;20131;-66
2021/05/02 04:36:11;;;;;;;8.57;7.78;;;;;;;;;;4151294;34;20614;-65
2021/05/02 04:38:37;;;;;;;8.10;7.30;;;;;;;;;;4151298;34;20471;-67
2021/05/02 04:41:03;;;;;;;8.35;7.55;;;;;;;;;;4151062;34;20159;-64
2021/05/02 04:43:29;;;;;;;8.50;7.70;;;;;;;;;;4151071;34;20529;-66
2021/05/02 04:45:55;;;;;;;7.95;7.20;;;;;;;;;;4151013;34;20099;-66
2021/05/02 04:48:21;;;;;;;10.95;7.40;;;;;;;;;;4151124;34;20528;-65
2021/05/02 04:50:47;;;;;;;8.60;7.80;;;;;;;;;;4151161;34;20702;-63
2021/05/02 04:53:13;;;;;;;9.10;8.18;;;;;;;;;;4150948;34;20127;-65
2021/05/02 04:55:39;;;;;;;9.70;8.18;;;;;;;;;;4151325;34;20135;-64
2021/05/02 04:58:08;;;;;;;9.50;8.55;;;;;;;;;;4150997;34;20231;-65
2021/05/02 05:00:34;;;;;;;8.38;7.57;;;;;;;;;;4151186;34;20586;-63
2021/05/02 05:03:01;;;;;;;8.75;7.65;;;;;;;;;;4149734;34;20615;-63
2021/05/02 05:05:27;;;;;;;7.95;7.18;;;;;;;;;;4138457;34;20134;-66
2021/05/02 05:07:52;;;;;;;8.95;8.05;;;;;;;;;;4151233;34;20091;-64
2021/05/02 05:10:18;;;;;;;8.55;7.40;;;;;;;;;;4150848;34;20470;-65
2021/05/02 05:12:44;;;;;;;8.52;7.72;;;;;;;;;;4138388;34;20190;-65
2021/05/02 05:15:10;;;;;;;8.45;7.43;;;;;;;;;;4151162;34;20183;-65
2021/05/02 05:17:36;;;;;;;9.13;7.62;;;;;;;;;;4150928;34;20219;-64
2021/05/02 05:20:03;;;;;;;9.63;8.55;;;;;;;;;;4150971;34;20115;-66
2021/05/02 05:22:29;;;;;;;9.02;8.13;;;;;;;;;;4150832;34;20103;-66
2021/05/02 05:24:55;;;;;;;9.23;8.02;;;;;;;;;;4138276;34;20123;-65
2021/05/02 05:27:21;;;;;;;9.15;8.20;;;;;;;;;;4150535;34;20491;-67
2021/05/02 05:29:47;;;;;;;9.10;8.20;;;;;;;;;;4149535;34;20131;-66
2021/05/02 05:32:13;;;;;;;9.38;8.43;;;;;;;;;;4138460;34;21178;-65
2021/05/02 05:34:39;;;;;;;8.45;7.55;;;;;;;;;;4151105;34;20119;-63
2021/05/02 05:37:05;;;;;;;8.55;7.53;;;;;;;;;;4150649;34;20127;-65
2021/05/02 05:39:31;;;;;;;8.35;7.55;;;;;;;;;;4150631;34;20242;-65
2021/05/02 05:41:56;;;;;;;9.40;8.45;;;;;;;;;;4150928;34;20096;-65
2021/05/02 05:44:22;;;;;;;8.60;7.68;;;;;;;;;;4150806;34;20126;-64
2021/05/02 05:46:48;;;;;;;10.68;8.30;;;;;;;;;;4150711;34;20125;-64
2021/05/02 05:49:17;;;;;;;8.13;7.28;;;;;;;;;;4150795;34;20107;-63
2021/05/02 05:51:43;;;;;;;8.05;7.25;;;;;;;;;;4150565;34;20596;-64
2021/05/02 05:54:09;;;;;;;9.13;7.97;;;;;;;;;;4150903;34;20115;-66
2021/05/02 05:56:37;;;;;;;8.88;7.85;;;;;;;;;;4150519;34;20229;-63
2021/05/02 05:59:03;;;;;;;9.00;8.00;;;;;;;;;;4150442;34;20506;-65
2021/05/02 06:01:29;;;;;;;9.07;7.78;;;;;;;;;;4150468;34;20451;-65
2021/05/02 06:03:56;;;;;;;9.48;8.20;;;;;;;;;;4150628;34;20123;-65
2021/05/02 06:06:22;;;;;;;10.35;7.80;;;;;;;;;;4150785;34;20511;-63
2021/05/02 06:08:48;;;;;;;8.98;8.07;;;;;;;;;;4150614;34;20203;-66
2021/05/02 06:11:14;;;;;;;9.50;7.37;;;;;;;;;;4150752;34;20126;-66
2021/05/02 06:13:40;;;;;;;10.68;7.25;;;;;;;;;;4138208;34;20131;-64
2021/05/02 06:16:06;;;;;;;9.43;7.32;;;;;;;;;;4150342;34;20133;-64
2021/05/02 06:18:32;;;;;;;9.80;8.65;;;;;;;;;;4150438;34;20119;-66
2021/05/02 06:20:58;;;;;;;8.27;7.43;;;;;;;;;;4150696;34;20139;-64
2021/05/02 06:23:24;;;;;;;7.97;7.20;;;;;;;;;;4138008;34;20171;-64
2021/05/02 06:25:50;;;;;;;11.48;7.62;;;;;;;;;;4150379;34;20122;-64
2021/05/02 06:28:19;;;;;;;8.43;7.57;;;;;;;;;;4150148;34;20546;-64
2021/05/02 06:30:55;;;;;;;9.85;7.68;;;;;;;;;;4138873;34;20115;-64
2021/05/02 06:33:23;;;;;;;8.30;7.47;;;;;;;;;;4137827;34;20102;-64
2021/05/02 06:35:49;;;;;;;8.40;7.30;;;;;;;;;;4150322;34;20123;-64
2021/05/02 06:38:15;;;;;;;7.45;6.60;;;;;;;;;;4150441;34;20193;-64
2021/05/02 06:40:41;;;;;;;7.65;6.85;;;;;;;;;;4150331;34;20122;-63
2021/05/02 06:43:08;;;;;;;10.18;7.57;;;;;;;;;;4137476;34;20471;-63
2021/05/02 06:45:35;;;;;;;8.32;6.95;;;;;;;;;;4137723;34;20530;-64
2021/05/02 06:48:04;;;;;;;9.50;7.20;;;;;;;;;;4150387;34;20106;-64
2021/05/02 06:50:31;;;;;;;10.35;6.78;;;;;;;;;;4137186;34;20097;-63
2021/05/02 06:52:57;;;;;;;8.07;7.25;;;;;;;;;;4149438;34;20122;-63
2021/05/02 06:55:23;;;;;;;9.00;7.45;;;;;;;;;;4149944;34;20130;-66
2021/05/02 06:57:49;;;;;;;7.62;6.60;;;;;;;;;;4126624;34;20199;-64
2021/05/02 07:00:16;;;;;;;8.70;7.30;;;;;;;;;;4150029;34;20205;-64
2021/05/02 07:02:42;;;;;;;8.73;6.57;;;;;;;;;;4149905;34;20129;-64
2021/05/02 07:05:08;;;;;;;8.05;7.18;;;;;;;;;;4149883;34;20444;-63
2021/05/02 07:07:38;;;;;;;9.65;7.05;;;;;;;;;;4149877;34;20127;-63
2021/05/02 07:10:05;;;;;;;8.20;6.32;;;;;;;;;;4149984;34;20513;-64
2021/05/02 07:12:31;;;;;;;8.70;6.57;;;;;;;;;;4137671;34;20107;-67
2021/05/02 07:14:57;;;;;;;8.88;5.78;;;;;;;;;;4149864;34;20127;-63
2021/05/02 07:17:23;;;;;;;8.15;5.97;;;;;;;;;;4149857;34;20212;-66
2021/05/02 07:19:49;;;;;;;7.40;6.03;;;;;;;;;;4126364;34;20135;-66
2021/05/02 07:22:17;;;;;;;5.97;5.37;;;;;;;;;;4137630;34;20134;-64
2021/05/02 07:24:45;;;;;;;6.78;6.18;;;;;;;;;;4137703;34;20280;-66
2021/05/02 07:27:11;;;;;;;5.30;4.80;;;;;;;;;;4137561;34;20589;-63
2021/05/02 07:29:37;;;;;;;6.90;5.85;;;;;;;;;;4137151;34;20127;-66
2021/05/02 07:32:03;;;;;;;8.02;6.22;;;;;;;;;;4149664;34;20104;-65
2021/05/02 07:34:29;;;;;;;6.28;5.45;;;;;;;;;;4149609;34;20126;-65
2021/05/02 07:36:55;;;;;;;7.70;6.35;;;;;;;;;;4149399;34;20099;-66
2021/05/02 07:39:21;;;;;;;9.93;6.43;;;;;;;;;;4150009;34;20506;-66
2021/05/02 07:41:47;;;;;;;6.05;5.20;;;;;;;;;;4148631;34;20115;-65
2021/05/02 07:44:13;;;;;;;6.68;5.47;;;;;;;;;;4149622;34;20122;-66
2021/05/02 07:46:39;;;;;;;7.55;5.15;;;;;;;;;;4136845;34;20483;-64
2021/05/02 07:49:09;;;;;;;7.35;5.65;;;;;;;;;;4137369;34;20121;-63
2021/05/02 07:51:41;;;;;;;7.60;6.07;;;;;;;;;;4149760;34;20134;-63
2021/05/02 07:54:08;;;;;;;5.22;4.72;;;;;;;;;;4149775;34;20448;-64
2021/05/02 07:56:34;;;;;;;9.32;5.55;;;;;;;;;;4149462;34;20135;-64
2021/05/02 07:59:00;;;;;;;6.55;5.90;;;;;;;;;;4149414;34;20126;-68
2021/05/02 08:01:26;;;;;;;5.90;5.28;;;;;;;;;;4149467;34;20130;-64
2021/05/02 08:03:52;;;;;;;7.70;5.87;;;;;;;;;;4138794;34;20133;-63
2021/05/02 08:06:18;;;;;;;7.57;6.10;;;;;;;;;;4151439;34;20134;-65
2021/05/02 08:08:44;;;;;;;7.22;5.68;;;;;;;;;;4151565;34;20095;-65
2021/05/02 08:11:10;;;;;;;5.53;4.82;;;;;;;;;;4151691;34;20119;-63
2021/05/02 08:13:36;;;;;;;5.60;4.90;;;;;;;;;;4151786;34;20118;-66
2021/05/02 08:16:03;;;;;;;6.12;4.30;;;;;;;;;;4151436;34;20551;-64
2021/05/02 08:18:29;;;;;;;6.65;4.43;;;;;;;;;;4138919;34;20208;-64
2021/05/02 08:20:56;;;;;;;5.50;4.53;;;;;;;;;;4151333;34;20178;-63
2021/05/02 08:23:22;;;;;;;7.60;4.00;;;;;;;;;;4151318;34;20138;-65
2021/05/02 08:25:48;;;;;;;4.28;3.58;;;;;;;;;;4151736;34;20246;-65
2021/05/02 08:28:14;;;;;;;6.28;3.97;;;;;;;;;;4151407;34;20550;-65
2021/05/02 08:30:40;;;;;;;5.97;5.37;;;;;;;;;;4151362;34;20117;-64
2021/05/02 08:33:06;;;;;;;4.85;4.28;;;;;;;;;;4138751;34;20123;-63
2021/05/02 08:35:32;;;;;;;5.28;4.50;;;;;;;;;;4151584;34;20146;-63
2021/05/02 08:38:00;;;;;;;4.80;4.30;;;;;;;;;;4151499;34;20115;-64
2021/05/02 08:40:27;;;;;;;5.35;4.80;;;;;;;;;;4137437;34;20243;-64
2021/05/02 08:42:53;;;;;;;7.57;4.62;;;;;;;;;;4151104;34;20118;-63
2021/05/02 08:45:19;;;;;;;5.78;4.82;;;;;;;;;;4138681;34;20091;-64
2021/05/02 08:47:49;;;;;;;4.95;4.25;;;;;;;;;;4127848;34;20123;-64
2021/05/02 08:50:15;;;;;;;6.68;4.70;;;;;;;;;;4151342;34;20510;-65
2021/05/02 08:52:41;;;;;;;5.15;4.20;;;;;;;;;;4138932;34;20117;-64
2021/05/02 08:55:08;;;;;;;8.65;4.75;;;;;;;;;;4151423;34;20127;-64
2021/05/02 08:57:35;;;;;;;4.72;4.10;;;;;;;;;;4151069;34;20152;-64
2021/05/02 09:00:02;;;;;;;5.28;4.30;;;;;;;;;;4151212;34;20118;-64
2021/05/02 09:02:31;;;;;;;25.65;6.03;;;;;;;;;;4138931;34;20114;-63
2021/05/02 09:05:02;;;;;;;5.72;4.55;;;;;;;;;;4151310;34;20499;-66
2021/05/02 09:07:35;;;;;;;6.75;4.45;;;;;;;;;;4151080;34;20225;-65
2021/05/02 09:10:02;;;;;;;7.53;4.37;;;;;;;;;;4128282;34;20102;-66
2021/05/02 09:12:28;;;;;;;6.32;4.28;;;;;;;;;;4151052;34;20243;-64
2021/05/02 09:14:54;;;;;;;5.37;4.60;;;;;;;;;;4150122;34;20126;-64
2021/05/02 09:17:28;;;;;;;5.78;3.95;;;;;;;;;;4151128;34;20134;-64
2021/05/02 09:19:56;;;;;;;5.00;4.03;;;;;;;;;;4150970;34;20203;-64
2021/05/02 09:22:23;;;;;;;4.45;4.05;;;;;;;;;;4138669;34;20122;-66
2021/05/02 09:25:03;;;;;;;8.10;4.45;;;;;;;;;;4138676;34;20296;-63
2021/05/02 09:27:29;;;;;;;5.47;4.32;;;;;;;;;;4138584;34;20130;-64
2021/05/02 09:30:12;;;;;;;4.30;3.90;;;;;;;;;;4138661;34;20561;-65
2021/05/02 09:32:41;;;;;;;5.32;4.20;;;;;;;;;;4139339;34;20102;-63
2021/05/02 09:35:07;;;;;;;6.80;4.45;;;;;;;;;;4127646;34;20123;-63
2021/05/02 09:37:36;;;;;;;5.65;4.65;;;;;;;;;;4127094;34;20527;-65
2021/05/02 09:40:02;;;;;;;5.15;3.80;;;;;;;;;;4138519;34;20095;-64
2021/05/02 09:42:35;;;;;;;5.05;4.50;;;;;;;;;;4150672;34;20193;-63
2021/05/02 09:45:02;;;;;;;5.07;3.72;;;;;;;;;;4138243;34;20521;-65
2021/05/02 09:47:35;;;;;;;7.90;4.82;;;;;;;;;;4138108;34;20199;-63
2021/05/02 09:50:08;;;;;;;5.53;3.92;;;;;;;;;;4138331;34;20099;-64
2021/05/02 09:53:06;;;;;;;4.57;4.18;;;;;;;;;;4150734;34;20561;-65
2021/05/02 09:55:33;;;;;;;4.57;3.53;;;;;;;;;;4147839;34;20205;-65
2021/05/02 09:58:21;;;;;;;6.32;4.18;;;;;;;;;;4150596;34;20182;-65
2021/05/02 10:00:50;;;;;;;5.03;3.85;;;;;;;;;;4150663;34;20111;-64
2021/05/02 10:03:20;;;;;;;4.47;3.62;;;;;;;;;;4150379;34;20134;-64
2021/05/02 10:05:55;;;;;;;4.30;3.80;;;;;;;;;;4127468;34;20521;-65
2021/05/02 10:08:21;;;;;;;4.65;3.83;;;;;;;;;;4150652;34;20300;-64
2021/05/02 10:10:46;;;;;;;4.55;4.03;;;;;;;;;;4138022;34;20131;-64
2021/05/02 10:13:12;;;;;;;5.28;4.20;;;;;;;;;;4137953;34;20107;-65
2021/05/02 10:15:38;;;;;;;5.75;3.67;;;;;;;;;;4150457;34;20103;-63
2021/05/02 10:18:04;;;;;;;5.62;4.25;;;;;;;;;;4137984;34;20192;-64
2021/05/02 10:20:30;;;;;;;4.85;4.35;;;;;;;;;;4150633;34;20210;-64
2021/05/02 10:22:56;;;;;;;5.35;4.40;;;;;;;;;;4137781;34;20118;-66
2021/05/02 10:25:22;;;;;;;5.37;4.53;;;;;;;;;;4126704;34;20147;-64
2021/05/02 10:27:49;;;;;;;10.15;5.10;;;;;;;;;;4150267;34;20232;-63
2021/05/02 10:30:40;;;;;;;6.90;4.62;;;;;;;;;;4126832;34;20579;-64
2021/05/02 10:33:10;;;;;;;15.00;4.40;;;;;;;;;;4138371;34;20532;-64
2021/05/02 10:35:46;;;;;;;4.90;4.43;;;;;;;;;;4137885;34;20299;-64
2021/05/02 10:38:14;;;;;;;5.20;3.67;;;;;;;;;;4150252;34;20095;-64
2021/05/02 10:40:41;;;;;;;16.60;4.47;;;;;;;;;;4150172;34;20117;-63
2021/05/02 10:43:10;;;;;;;4.55;3.90;;;;;;;;;;4137511;34;20682;-63
2021/05/02 10:45:39;;;;;;;5.60;4.12;;;;;;;;;;4137714;34;20214;-63
2021/05/02 10:48:10;;;;;;;6.25;4.80;;;;;;;;;;4150169;34;20130;-64
2021/05/02 10:50:40;;;;;;;5.18;4.25;;;;;;;;;;4150244;34;20118;-65
2021/05/02 10:53:16;;;;;;;5.37;4.20;;;;;;;;;;4138296;34;20439;-62
2021/05/02 10:56:03;;;;;;;5.32;4.30;;;;;;;;;;4150386;34;20522;-63
2021/05/02 10:58:37;;;;;;;5.00;4.57;;;;;;;;;;4150166;34;20123;-63
2021/05/02 11:01:33;;;;;;;4.65;4.22;;;;;;;;;;4137474;34;20133;-63
2021/05/02 11:04:08;;;;;;;5.82;4.37;;;;;;;;;;4149192;34;20600;-63
2021/05/02 11:06:38;;;;;;;5.60;4.55;;;;;;;;;;4149929;34;20122;-65
2021/05/02 11:09:14;;;;;;;6.57;4.60;;;;;;;;;;4150092;34;20107;-65
2021/05/02 11:11:44;;;;;;;3.92;3.40;;;;;;;;;;4137905;34;20185;-63
2021/05/02 11:16:46;;;;;;;6.05;4.32;;;;;;;;;;4150110;34;20509;-65
2021/05/02 11:19:24;;;;;;;6.57;4.00;;;;;;;;;;4150075;34;20107;-62
2021/05/02 11:21:55;;;;;;;6.95;4.32;;;;;;;;;;4150122;34;20103;-62
2021/05/02 11:24:26;;;;;;;6.03;4.35;;;;;;;;;;4150253;34;20099;-64
2021/05/02 11:27:03;;;;;;;4.43;3.83;;;;;;;;;;4149834;34;20138;-62
2021/05/02 11:29:34;;;;;;;6.68;4.35;;;;;;;;;;4150127;34;20107;-63
2021/05/02 11:32:03;;;;;;;5.32;4.53;;;;;;;;;;4137730;34;20119;-62
2021/05/02 11:34:51;;;;;;;5.07;4.12;;;;;;;;;;4149974;34;20117;-63
2021/05/02 11:37:45;;;;;;;5.75;4.15;;;;;;;;;;4149757;34;20098;-65
2021/05/02 11:40:26;;;;;;;3.90;3.50;;;;;;;;;;4151799;34;20142;-64
2021/05/02 11:43:17;;;;;;;4.28;3.87;;;;;;;;;;4151714;34;20096;-65
2021/05/02 11:45:52;;;;;;;5.90;4.00;;;;;;;;;;4129751;34;20088;-64
2021/05/02 11:48:32;;;;;;;5.03;4.03;;;;;;;;;;4151747;34;20114;-63
2021/05/02 11:51:03;;;;;;;4.80;3.33;;;;;;;;;;4139097;34;20106;-64
2021/05/02 11:53:39;;;;;;;5.35;4.22;;;;;;;;;;4151653;34;20118;-63
2021/05/02 11:56:12;;;;;;;8.30;3.70;;;;;;;;;;4151685;34;20219;-62
2021/05/02 11:58:40;;;;;;;4.25;3.85;;;;;;;;;;4139390;34;20114;-63
2021/05/02 12:01:12;;;;;;;3.40;3.08;;;;;;;;;;4139080;34;20630;-63
2021/05/02 12:03:39;;;;;;;3.70;3.10;;;;;;;;;;4151504;34;20111;-62
2021/05/02 12:06:06;;;;;;;3.92;3.50;;;;;;;;;;4138797;34;20171;-64
2021/05/02 12:08:32;;;;;;;6.53;3.60;;;;;;;;;;4139106;34;20139;-63
2021/05/02 12:11:18;;;;;;;3.92;3.33;;;;;;;;;;4139151;34;20114;-62
2021/05/02 12:13:51;;;;;;;3.70;3.20;;;;;;;;;;4151656;34;20087;-63
2021/05/02 12:16:18;;;;;;;3.92;3.17;;;;;;;;;;4151632;34;20114;-64
2021/05/02 12:19:10;;;;;;;3.72;3.17;;;;;;;;;;4151628;34;20088;-63
2021/05/02 12:21:40;;;;;;;6.10;3.30;;;;;;;;;;4149115;34;20210;-63
2021/05/02 12:24:34;;;;;;;4.00;2.92;;;;;;;;;;4151398;34;20115;-64
2021/05/02 12:27:06;;;;;;;5.30;3.20;;;;;;;;;;4148306;34;20138;-64
2021/05/02 12:29:36;;;;;;;6.47;3.58;;;;;;;;;;4150023;34;20115;-63
2021/05/02 12:32:14;;;;;;;3.25;2.95;;;;;;;;;;4139077;34;20227;-63
2021/05/02 12:34:46;;;;;;;4.90;3.10;;;;;;;;;;4139391;34;20534;-63
2021/05/02 12:37:17;;;;;;;4.22;3.17;;;;;;;;;;4139060;34;20131;-64
2021/05/02 12:39:48;;;;;;;4.18;3.30;;;;;;;;;;4151314;34;20103;-64
2021/05/02 12:42:14;;;;;;;4.12;3.25;;;;;;;;;;4151155;34;20136;-64
2021/05/02 12:44:41;;;;;;;4.40;2.90;;;;;;;;;;4138780;34;20119;-64
2021/05/02 12:47:17;;;;;;;3.87;2.85;;;;;;;;;;4151332;34;20111;-65
2021/05/02 12:49:54;;;;;;;4.93;2.83;;;;;;;;;;4150366;34;20110;-63
2021/05/02 12:52:20;;;;;;;3.72;3.35;;;;;;;;;;4151294;34;20142;-64
2021/05/02 12:54:46;;;;;;;3.78;3.33;;;;;;;;;;4151134;34;20119;-63
2021/05/02 12:57:13;;;;;;;4.22;3.15;;;;;;;;;;4127539;34;20542;-64
2021/05/02 12:59:47;;;;;;;6.80;3.50;;;;;;;;;;4151382;34;20523;-65
2021/05/02 13:02:23;;;;;;;5.28;2.90;;;;;;;;;;4139087;34;20458;-66
2021/05/02 13:05:00;;;;;;;6.00;3.15;;;;;;;;;;4151368;34;20537;-65
2021/05/02 13:07:36;;;;;;;6.30;3.15;;;;;;;;;;4149763;34;20527;-64
2021/05/02 13:10:10;;;;;;;4.82;3.03;;;;;;;;;;4151170;34;20114;-65
2021/05/02 13:12:58;;;;;;;3.58;2.92;;;;;;;;;;4151206;34;20113;-63
2021/05/02 13:15:30;;;;;;;4.50;3.22;;;;;;;;;;4151201;34;20098;-64
2021/05/02 13:18:04;;;;;;;3.53;2.95;;;;;;;;;;4150959;34;20175;-63
2021/05/02 13:20:54;;;;;;;4.12;3.12;;;;;;;;;;4150903;34;20107;-64
2021/05/02 13:23:33;;;;;;;5.85;3.40;;;;;;;;;;4144844;34;20450;-66
2021/05/02 13:26:19;;;;;;;3.65;2.90;;;;;;;;;;4138627;34;20198;-63
2021/05/02 13:29:13;;;;;;;6.15;2.62;;;;;;;;;;4151120;34;20107;-64
2021/05/02 13:31:55;;;;;;;4.00;3.10;;;;;;;;;;4151229;34;20571;-64
2021/05/02 13:34:26;;;;;;;3.35;2.53;;;;;;;;;;4150900;34;20220;-63
2021/05/02 13:36:52;;;;;;;3.80;2.95;;;;;;;;;;4151165;34;20218;-62
2021/05/02 13:39:21;;;;;;;4.80;3.33;;;;;;;;;;4150998;34;20096;-64
2021/05/02 13:41:50;;;;;;;4.40;3.30;;;;;;;;;;4150671;34;20565;-63
2021/05/02 13:44:17;;;;;;;6.68;2.72;;;;;;;;;;4149618;34;20123;-63
2021/05/02 13:46:44;;;;;;;4.65;3.17;;;;;;;;;;4150853;34;20090;-64
2021/05/02 13:49:10;;;;;;;3.72;2.95;;;;;;;;;;4138153;34;20491;-63
2021/05/02 13:51:36;;;;;;;3.30;2.58;;;;;;;;;;4138154;34;20115;-63
2021/05/02 13:54:02;;;;;;;5.65;3.00;;;;;;;;;;4150870;34;20463;-63
2021/05/02 13:56:28;;;;;;;3.20;2.72;;;;;;;;;;4150957;34;20110;-63
2021/05/02 13:58:54;;;;;;;4.25;2.97;;;;;;;;;;4150822;34;20129;-63
2021/05/02 14:01:21;;;;;;;5.43;3.08;;;;;;;;;;4148942;34;20508;-64
2021/05/02 14:03:49;;;;;;;3.85;2.60;;;;;;;;;;4150478;34;20840;-64
2021/05/02 14:06:15;;;;;;;4.22;3.00;;;;;;;;;;4150547;34;20099;-64
2021/05/02 14:08:41;;;;;;;3.22;2.70;;;;;;;;;;4150686;34;20131;-66
2021/05/02 14:11:07;;;;;;;5.05;2.90;;;;;;;;;;4138130;34;20143;-63
2021/05/02 14:13:33;;;;;;;3.20;2.53;;;;;;;;;;4150796;34;20534;-65
2021/05/02 14:16:00;;;;;;;3.45;2.72;;;;;;;;;;4149211;34;20215;-62
2021/05/02 14:18:26;;;;;;;3.53;3.10;;;;;;;;;;4138091;34;20315;-65
2021/05/02 14:20:52;;;;;;;6.00;3.50;;;;;;;;;;4150342;34;20119;-64
2021/05/02 14:23:18;;;;;;;3.67;3.00;;;;;;;;;;4150435;34;20119;-65
2021/05/02 14:25:51;;;;;;;4.62;3.60;;;;;;;;;;4150522;34;20240;-63
2021/05/02 14:28:18;;;;;;;5.15;2.70;;;;;;;;;;4150334;34;20138;-62
2021/05/02 14:30:44;;;;;;;3.17;2.87;;;;;;;;;;4150498;34;20525;-65
2021/05/02 14:33:10;;;;;;;4.40;2.90;;;;;;;;;;4150237;34;20119;-62
2021/05/02 14:35:36;;;;;;;4.60;2.95;;;;;;;;;;4150341;34;20110;-62
2021/05/02 14:38:03;;;;;;;5.53;4.18;;;;;;;;;;4150210;34;20175;-64
2021/05/02 14:40:30;;;;;;;4.82;2.90;;;;;;;;;;4150475;34;20103;-63
2021/05/02 14:42:55;;;;;;;4.07;3.40;;;;;;;;;;4137607;34;20134;-63
2021/05/02 14:45:21;;;;;;;6.18;2.90;;;;;;;;;;4150467;34;20151;-64
2021/05/02 14:47:47;;;;;;;4.05;3.05;;;;;;;;;;4150147;34;20095;-63
2021/05/02 14:50:15;;;;;;;6.05;3.55;;;;;;;;;;4137539;34;20484;-64
2021/05/02 14:52:43;;;;;;;6.22;4.57;;;;;;;;;;4150032;34;20191;-63
2021/05/02 14:55:09;;;;;;;6.00;3.83;;;;;;;;;;4150105;34;20207;-65
2021/05/02 14:57:35;;;;;;;6.15;3.45;;;;;;;;;;4150386;34;20115;-65
2021/05/02 15:00:04;;;;;;;6.35;4.18;;;;;;;;;;4137651;34;20128;-65
2021/05/02 15:02:30;;;;;;;7.53;4.12;;;;;;;;;;4149853;34;20167;-64
2021/05/02 15:04:56;;;;;;;10.15;4.82;;;;;;;;;;4150100;34;20146;-63
2021/05/02 15:07:22;;;;;;;6.80;4.97;;;;;;;;;;4150173;34;20211;-65
2021/05/02 15:09:47;;;;;;;6.00;4.97;;;;;;;;;;4137575;34;20123;-63
2021/05/02 15:12:14;;;;;;;10.52;5.18;;;;;;;;;;4150033;34;20145;-63
2021/05/02 15:14:40;;;;;;;5.93;4.55;;;;;;;;;;4152087;34;20091;-65
2021/05/02 15:17:06;;;;;;;5.50;3.80;;;;;;;;;;4151909;34;20635;-63
2021/05/02 15:19:34;;;;;;;4.03;3.42;;;;;;;;;;4152254;34;20135;-66
2021/05/02 15:22:01;;;;;;;4.53;3.50;;;;;;;;;;4152225;34;20142;-65
2021/05/02 15:24:27;;;;;;;6.90;4.43;;;;;;;;;;4152004;34;20134;-63